Time;durP1;ratioP1;P1;durP2;ratioP2;P2;SDS_P1;SDS_P2;PMS_P1;PMS_P2;Temp;Humidity;BMP_temperature;BMP_pressure;BME280_temperature;BME280_humidity;BME280_pressure;Samples;Min_cycle;Max_cycle;Signal;HPM_P1;HPM_P2
2022/07/03 00:00:19;;;;;;;;;;;;;;;-146.27;100.00;64033.13;5094402;28;19915;-37
2022/07/03 00:02:44;;;;;;;;;;;;;;;-146.27;100.00;64033.13;5094063;28;19912;-37
2022/07/03 00:05:09;;;;;;;;;;;;;;;-146.27;100.00;64033.13;5093839;28;20371;-37
2022/07/03 00:07:36;;;;;;;;;;;;;;;-146.27;100.00;64033.13;5093997;28;19932;-37
2022/07/03 00:10:01;;;;;;;;;;;;;;;-146.27;100.00;64033.13;5094170;28;19931;-37
2022/07/03 00:12:27;;;;;;;;;;;;;;;-146.27;100.00;64033.13;5094031;28;19936;-49
2022/07/03 00:14:52;;;;;;;;;;;;;;;-146.27;100.00;64033.13;5093928;28;19935;-49
2022/07/03 00:17:17;;;;;;;;;;;;;;;-146.27;100.00;64033.13;5093475;28;20363;-48
2022/07/03 00:19:42;;;;;;;;;;;;;;;-146.27;100.00;64033.13;5093763;28;19916;-48
2022/07/03 00:22:10;;;;;;;;;;;;;;;-146.27;100.00;64033.13;5093284;28;20359;-47
2022/07/03 00:24:42;;;;;;;;;;;;;;;-146.27;100.00;64033.13;5093801;28;20376;-48
2022/07/03 00:27:08;;;;;;;;;;;;;;;-146.27;100.00;64033.13;5094010;28;20331;-49
2022/07/03 00:29:37;;;;;;;;;;;;;;;-146.27;100.00;64033.13;5093649;28;19961;-49
2022/07/03 00:32:03;;;;;;;;;;;;;;;-146.27;100.00;64033.13;5093895;28;19912;-47
2022/07/03 00:34:29;;;;;;;;;;;;;;;-146.27;100.00;64033.13;5093716;28;19923;-48
2022/07/03 00:36:56;;;;;;;;;;;;;;;-146.27;100.00;64033.13;5093214;28;19924;-47
2022/07/03 00:39:22;;;;;;;;;;;;;;;-146.27;100.00;64033.13;5093117;28;19912;-46
2022/07/03 00:41:58;;;;;;;;;;;;;;;-146.27;100.00;64033.13;5093510;28;20307;-49
2022/07/03 00:44:24;;;;;;;;;;;;;;;-146.27;100.00;64033.13;5093295;28;19943;-49
2022/07/03 00:46:52;;;;;;;;;;;;;;;-146.27;100.00;64033.13;5093453;28;19935;-50
2022/07/03 00:49:18;;;;;;;;;;;;;;;-146.27;100.00;64033.13;5093206;28;19912;-47
2022/07/03 00:51:50;;;;;;;;;;;;;;;-146.27;100.00;64033.13;5093505;28;20003;-49
2022/07/03 00:54:17;;;;;;;;;;;;;;;-146.27;100.00;64033.13;5093224;28;19973;-47
2022/07/03 00:56:46;;;;;;;;;;;;;;;-146.27;100.00;64033.13;5093210;28;19916;-49
2022/07/03 00:59:11;;;;;;;;;;;;;;;-146.27;100.00;64033.13;5093448;28;19943;-46
2022/07/03 01:01:39;;;;;;;;;;;;;;;-146.27;100.00;64033.13;5092722;28;19947;-50
2022/07/03 01:04:04;;;;;;;;;;;;;;;-146.27;100.00;64033.13;5092849;28;19912;-48
2022/07/03 01:06:32;;;;;;;;;;;;;;;-146.27;100.00;64033.13;5093284;28;19912;-50
2022/07/03 01:09:02;;;;;;;;;;;;;;;-146.27;100.00;64033.13;5093134;28;20359;-49
2022/07/03 01:11:31;;;;;;;;;;;;;;;-146.27;100.00;64033.13;5092549;28;19912;-49
2022/07/03 01:14:03;;;;;;;;;;;;;;;-146.27;100.00;64033.13;5092743;28;19920;-48
2022/07/03 01:16:31;;;;;;;;;;;;;;;-146.27;100.00;64033.13;5092785;28;19923;-47
2022/07/03 01:19:15;;;;;;;;;;;;;;;-146.27;100.00;64033.13;5092886;28;20335;-50
2022/07/03 01:21:42;;;;;;;;;;;;;;;-146.27;100.00;64033.13;5092542;28;19919;-47
2022/07/03 01:24:18;;;;;;;;;;;;;;;-146.27;100.00;64033.13;5092458;28;19912;-49
2022/07/03 01:26:45;;;;;;;;;;;;;;;-146.27;100.00;64033.13;5092611;28;19934;-47
2022/07/03 01:29:18;;;;;;;;;;;;;;;-146.27;100.00;64033.13;5092985;28;19912;-51
2022/07/03 01:31:45;;;;;;;;;;;;;;;-146.27;100.00;64033.13;5091857;28;19919;-50
2022/07/03 01:34:14;;;;;;;;;;;;;;;-146.27;100.00;64033.13;5092555;28;19938;-50
2022/07/03 01:36:41;;;;;;;;;;;;;;;-146.27;100.00;64033.13;5096187;28;19924;-47
2022/07/03 01:39:08;;;;;;;;;;;;;;;-146.27;100.00;64033.13;5113163;28;19915;-47
2022/07/03 01:41:33;;;;;;;;;;;;;;;-146.27;100.00;64033.13;5112689;28;19925;-50
2022/07/03 01:44:01;;;;;;;;;;;;;;;-146.27;100.00;64033.13;5112297;28;19999;-47
2022/07/03 01:46:28;;;;;;;;;;;;;;;-146.27;100.00;64033.13;5112485;28;19994;-47
2022/07/03 01:48:54;;;;;;;;;;;;;;;-146.27;100.00;64033.13;5096878;28;20007;-47
2022/07/03 01:51:19;;;;;;;;;;;;;;;-146.27;100.00;64033.13;5092066;28;20012;-48
2022/07/03 01:53:46;;;;;;;;;;;;;;;-146.27;100.00;64033.13;5091877;28;19916;-50
2022/07/03 01:56:12;;;;;;;;;;;;;;;-146.27;100.00;64033.13;5092222;28;19916;-48
2022/07/03 01:58:37;;;;;;;;;;;;;;;-146.27;100.00;64033.13;5092561;28;19912;-50
2022/07/03 02:01:08;;;;;;;;;;;;;;;-146.27;100.00;64033.13;5092272;28;20359;-47
2022/07/03 02:03:34;;;;;;;;;;;;;;;-146.27;100.00;64033.13;5091508;28;20402;-49
2022/07/03 02:06:13;;;;;;;;;;;;;;;-146.27;100.00;64033.13;5091568;28;20402;-45
2022/07/03 02:08:50;;;;;;;;;;;;;;;-146.27;100.00;64033.13;5091773;28;19939;-47
2022/07/03 02:11:15;;;;;;;;;;;;;;;-146.27;100.00;64033.13;5091442;28;19923;-48
2022/07/03 02:13:46;;;;;;;;;;;;;;;-146.27;100.00;64033.13;5091247;28;19912;-48
2022/07/03 02:16:16;;;;;;;;;;;;;;;-146.27;100.00;64033.13;5091093;28;19920;-48
2022/07/03 02:18:42;;;;;;;;;;;;;;;-146.27;100.00;64033.13;5091759;28;19912;-48
2022/07/03 02:21:18;;;;;;;;;;;;;;;-146.27;100.00;64033.13;5091745;28;19912;-49
2022/07/03 02:23:52;;;;;;;;;;;;;;;-146.27;100.00;64033.13;5091714;28;19966;-49
2022/07/03 02:26:21;;;;;;;;;;;;;;;-146.27;100.00;64033.13;5091123;28;19912;-46
2022/07/03 02:28:58;;;;;;;;;;;;;;;-146.27;100.00;64033.13;5091606;28;19923;-48
2022/07/03 02:31:24;;;;;;;;;;;;;;;-146.27;100.00;64033.13;5091614;28;19912;-48
2022/07/03 02:33:55;;;;;;;;;;;;;;;-146.27;100.00;64033.13;5090769;28;20281;-50
2022/07/03 02:36:21;;;;;;;;;;;;;;;-146.27;100.00;64033.13;5090493;28;20315;-48
2022/07/03 02:38:51;;;;;;;;;;;;;;;-146.27;100.00;64033.13;5111478;28;19912;-46
2022/07/03 02:41:21;;;;;;;;;;;;;;;-146.27;100.00;64033.13;5111515;28;19912;-48
2022/07/03 02:43:46;;;;;;;;;;;;;;;-146.27;100.00;64033.13;5110095;28;20511;-47
2022/07/03 02:46:50;;;;;;;;;;;;;;;-146.27;100.00;64033.13;5111571;28;20033;-47
2022/07/03 02:49:40;;;;;;;;;;;;;;;-146.27;100.00;64033.13;5085001;28;19919;-47
2022/07/03 02:52:24;;;;;;;;;;;;;;;-146.27;100.00;64033.13;5091028;28;20023;-46
2022/07/03 02:54:51;;;;;;;;;;;;;;;-146.27;100.00;64033.13;5091048;28;19970;-47
2022/07/03 02:57:19;;;;;;;;;;;;;;;-146.27;100.00;64033.13;5091040;28;19916;-49
2022/07/03 02:59:50;;;;;;;;;;;;;;;-146.27;100.00;64033.13;5090794;28;19912;-49
2022/07/03 03:02:18;;;;;;;;;;;;;;;-146.27;100.00;64033.13;5090716;28;20021;-50
2022/07/03 03:04:48;;;;;;;;;;;;;;;-146.27;100.00;64033.13;5090623;28;20304;-49
2022/07/03 03:07:15;;;;;;;;;;;;;;;-146.27;100.00;64033.13;5091235;28;19912;-49
2022/07/03 03:09:45;;;;;;;;;;;;;;;-146.27;100.00;64033.13;5090899;28;19919;-50
2022/07/03 03:12:11;;;;;;;;;;;;;;;-146.27;100.00;64033.13;5090840;28;19912;-49
2022/07/03 03:14:40;;;;;;;;;;;;;;;-146.27;100.00;64033.13;5090535;28;19912;-46
2022/07/03 03:17:06;;;;;;;;;;;;;;;-146.27;100.00;64033.13;5091030;28;19926;-48
2022/07/03 03:19:35;;;;;;;;;;;;;;;-146.27;100.00;64033.13;5090952;28;19987;-45
2022/07/03 03:22:13;;;;;;;;;;;;;;;-146.27;100.00;64033.13;5090868;28;20007;-46
2022/07/03 03:24:38;;;;;;;;;;;;;;;-146.27;100.00;64033.13;5090296;28;19912;-47
2022/07/03 03:27:04;;;;;;;;;;;;;;;-146.27;100.00;64033.13;5091202;28;19938;-46
2022/07/03 03:29:29;;;;;;;;;;;;;;;-146.27;100.00;64033.13;5090417;28;19920;-46
2022/07/03 03:31:54;;;;;;;;;;;;;;;-146.27;100.00;64033.13;5090906;28;20297;-44
2022/07/03 03:34:20;;;;;;;;;;;;;;;-146.27;100.00;64033.13;5090663;28;19916;-48
2022/07/03 03:36:45;;;;;;;;;;;;;;;-146.27;100.00;64033.13;5095440;28;19928;-46
2022/07/03 03:39:11;;;;;;;;;;;;;;;-146.27;100.00;64033.13;5111084;28;19961;-49
2022/07/03 03:41:37;;;;;;;;;;;;;;;-146.27;100.00;64033.13;5101668;28;19912;-47
2022/07/03 03:44:03;;;;;;;;;;;;;;;-146.27;100.00;64033.13;5090719;28;20045;-47
2022/07/03 03:46:28;;;;;;;;;;;;;;;-146.27;100.00;64033.13;5090774;28;20417;-46
2022/07/03 03:48:53;;;;;;;;;;;;;;;-146.27;100.00;64033.13;5090574;28;19924;-47
2022/07/03 03:51:19;;;;;;;;;;;;;;;-146.27;100.00;64033.13;5090236;28;19919;-46
2022/07/03 03:53:44;;;;;;;;;;;;;;;-146.27;100.00;64033.13;5090500;28;20007;-35
2022/07/03 03:56:11;;;;;;;;;;;;;;;-146.27;100.00;64033.13;5093318;28;19954;-35
2022/07/03 03:58:38;;;;;;;;;;;;;;;-146.27;100.00;64033.13;5092461;28;20022;-36
2022/07/03 04:01:04;;;;;;;;;;;;;;;-146.27;100.00;64033.13;5093719;28;19912;-37
2022/07/03 04:03:30;;;;;;;;;;;;;;;-146.27;100.00;64033.13;5093130;28;19912;-37
2022/07/03 04:05:55;;;;;;;;;;;;;;;-146.27;100.00;64033.13;5093849;28;20330;-37
2022/07/03 04:08:21;;;;;;;;;;;;;;;-146.27;100.00;64033.13;5094024;28;19916;-46
2022/07/03 04:10:46;;;;;;;;;;;;;;;-146.27;100.00;64033.13;5093857;28;19920;-47
2022/07/03 04:13:12;;;;;;;;;;;;;;;-146.27;100.00;64033.13;5093342;28;19919;-47
2022/07/03 04:15:37;;;;;;;;;;;;;;;-146.27;100.00;64033.13;5093676;28;19935;-46
2022/07/03 04:18:03;;;;;;;;;;;;;;;-146.27;100.00;64033.13;5093603;28;20399;-49
2022/07/03 04:20:28;;;;;;;;;;;;;;;-146.27;100.00;64033.13;5093512;28;19912;-45
2022/07/03 04:22:53;;;;;;;;;;;;;;;-146.27;100.00;64033.13;5093163;28;19977;-47
2022/07/03 04:25:18;;;;;;;;;;;;;;;-146.27;100.00;64033.13;5092919;28;19994;-48
2022/07/03 04:27:44;;;;;;;;;;;;;;;-146.27;100.00;64033.13;5092869;28;20299;-45
2022/07/03 04:30:10;;;;;;;;;;;;;;;-146.27;100.00;64033.13;5092702;28;20028;-47
2022/07/03 04:32:38;;;;;;;;;;;;;;;-146.27;100.00;64033.13;5093104;28;19912;-48
2022/07/03 04:35:04;;;;;;;;;;;;;;;-146.27;100.00;64033.13;5093110;28;19939;-46
2022/07/03 04:37:29;;;;;;;;;;;;;;;-146.27;100.00;64033.13;5104077;28;19927;-45
2022/07/03 04:39:55;;;;;;;;;;;;;;;-146.27;100.00;64033.13;5113850;28;19918;-49
2022/07/03 04:42:20;;;;;;;;;;;;;;;-146.27;100.00;64033.13;5113072;28;19919;-46
2022/07/03 04:44:45;;;;;;;;;;;;;;;-146.27;100.00;64033.13;5113162;28;20018;-36
2022/07/03 04:47:10;;;;;;;;;;;;;;;-146.27;100.00;64033.13;5113943;28;19912;-37
2022/07/03 04:49:36;;;;;;;;;;;;;;;-146.27;100.00;64033.13;5113860;28;20284;-37
2022/07/03 04:52:01;;;;;;;;;;;;;;;-146.27;100.00;64033.13;5113581;28;19912;-37
2022/07/03 04:54:26;;;;;;;;;;;;;;;-146.27;100.00;64033.13;5103945;28;19930;-36
2022/07/03 04:56:52;;;;;;;;;;;;;;;-146.27;100.00;64033.13;5090633;28;19920;-37
2022/07/03 04:59:17;;;;;;;;;;;;;;;-146.27;100.00;64033.13;5093214;28;19916;-37
2022/07/03 05:01:42;;;;;;;;;;;;;;;-146.27;100.00;64033.13;5092907;28;19912;-37
2022/07/03 05:04:07;;;;;;;;;;;;;;;-146.27;100.00;64033.13;5092692;28;19912;-37
2022/07/03 05:06:33;;;;;;;;;;;;;;;-146.27;100.00;64033.13;5091801;28;20423;-37
2022/07/03 05:08:58;;;;;;;;;;;;;;;-146.27;100.00;64033.13;5092570;28;19923;-38
2022/07/03 05:11:23;;;;;;;;;;;;;;;-146.27;100.00;64033.13;5091385;28;19919;-37
2022/07/03 05:13:49;;;;;;;;;;;;;;;-146.27;100.00;64033.13;5090817;28;20333;-38
2022/07/03 05:16:14;;;;;;;;;;;;;;;-146.27;100.00;64033.13;5091001;28;19964;-40
2022/07/03 05:18:39;;;;;;;;;;;;;;;-146.27;100.00;64033.13;5089471;28;20485;-36
2022/07/03 05:21:04;;;;;;;;;;;;;;;-146.27;100.00;64033.13;5091026;28;20245;-36
2022/07/03 05:23:30;;;;;;;;;;;;;;;-146.27;100.00;64033.13;5091395;28;20038;-37
2022/07/03 05:25:55;;;;;;;;;;;;;;;-146.27;100.00;64033.13;5091764;28;20007;-37
2022/07/03 05:28:21;;;;;;;;;;;;;;;-146.27;100.00;64033.13;5092038;28;20344;-37
2022/07/03 05:30:46;;;;;;;;;;;;;;;-146.27;100.00;64033.13;5092729;28;19916;-37
2022/07/03 05:33:11;;;;;;;;;;;;;;;-146.27;100.00;64033.13;5092835;28;19917;-37
2022/07/03 05:35:36;;;;;;;;;;;;;;;-146.27;100.00;64033.13;5092462;28;19916;-37
2022/07/03 05:38:02;;;;;;;;;;;;;;;-146.27;100.00;64033.13;5107724;28;19964;-37
2022/07/03 05:40:27;;;;;;;;;;;;;;;-146.27;100.00;64033.13;5112122;28;19912;-37
2022/07/03 05:42:53;;;;;;;;;;;;;;;-146.27;100.00;64033.13;5112084;28;20413;-37
2022/07/03 05:45:18;;;;;;;;;;;;;;;-146.27;100.00;64033.13;5111911;28;19998;-39
2022/07/03 05:47:44;;;;;;;;;;;;;;;-146.27;100.00;64033.13;5111896;28;19915;-37
2022/07/03 05:50:09;;;;;;;;;;;;;;;-146.27;100.00;64033.13;5098972;28;19963;-37
2022/07/03 05:52:35;;;;;;;;;;;;;;;-146.27;100.00;64033.13;5089882;28;19912;-37
2022/07/03 05:55:00;;;;;;;;;;;;;;;-146.27;100.00;64033.13;5089858;28;20012;-38
2022/07/03 05:57:25;;;;;;;;;;;;;;;-146.27;100.00;64033.13;5089935;28;19921;-38
2022/07/03 05:59:50;;;;;;;;;;;;;;;-146.27;100.00;64033.13;5090029;28;19912;-37
2022/07/03 06:02:17;;;;;;;;;;;;;;;-146.27;100.00;64033.13;5090758;28;19976;-37
2022/07/03 06:04:42;;;;;;;;;;;;;;;-146.27;100.00;64033.13;5089553;28;20304;-38
2022/07/03 06:07:07;;;;;;;;;;;;;;;-146.27;100.00;64033.13;5091062;28;19912;-37
2022/07/03 06:09:32;;;;;;;;;;;;;;;-146.27;100.00;64033.13;5090920;28;20383;-37
2022/07/03 06:11:58;;;;;;;;;;;;;;;-146.27;100.00;64033.13;5091192;28;20359;-38
2022/07/03 06:14:23;;;;;;;;;;;;;;;-146.27;100.00;64033.13;5091046;28;19912;-38
2022/07/03 06:16:48;;;;;;;;;;;;;;;-146.27;100.00;64033.13;5090076;28;19922;-37
2022/07/03 06:19:14;;;;;;;;;;;;;;;-146.27;100.00;64033.13;5089294;28;19919;-37
2022/07/03 06:21:39;;;;;;;;;;;;;;;-146.27;100.00;64033.13;5091195;28;19912;-36
2022/07/03 06:24:05;;;;;;;;;;;;;;;-146.27;100.00;64033.13;5090850;28;20420;-36
2022/07/03 06:26:30;;;;;;;;;;;;;;;-146.27;100.00;64033.13;5090795;28;20335;-37
2022/07/03 06:28:55;;;;;;;;;;;;;;;-146.27;100.00;64033.13;5082471;28;19920;-37
2022/07/03 06:31:20;;;;;;;;;;;;;;;-146.27;100.00;64033.13;5089211;28;19923;-37
2022/07/03 06:33:46;;;;;;;;;;;;;;;-146.27;100.00;64033.13;5081350;28;19920;-37
2022/07/03 06:36:11;;;;;;;;;;;;;;;-146.27;100.00;64033.13;5079399;28;20019;-37
2022/07/03 06:38:36;;;;;;;;;;;;;;;-146.27;100.00;64033.13;5111628;28;19969;-38
2022/07/03 06:41:02;;;;;;;;;;;;;;;-146.27;100.00;64033.13;5111392;28;19920;-37
2022/07/03 06:43:27;;;;;;;;;;;;;;;-146.27;100.00;64033.13;5111572;28;19918;-37
2022/07/03 06:45:52;;;;;;;;;;;;;;;-146.27;100.00;64033.13;5108940;28;19974;-37
2022/07/03 06:48:18;;;;;;;;;;;;;;;-146.27;100.00;64033.13;5091043;28;19963;-36
2022/07/03 06:50:43;;;;;;;;;;;;;;;-146.27;100.00;64033.13;5090569;28;19916;-36
2022/07/03 06:53:08;;;;;;;;;;;;;;;-146.27;100.00;64033.13;5090510;28;20037;-37
2022/07/03 06:55:33;;;;;;;;;;;;;;;-146.27;100.00;64033.13;5089901;28;19936;-37
2022/07/03 06:57:59;;;;;;;;;;;;;;;-146.27;100.00;64033.13;5090141;28;19995;-37
2022/07/03 07:00:24;;;;;;;;;;;;;;;-146.27;100.00;64033.13;5090024;28;19916;-36
2022/07/03 07:02:49;;;;;;;;;;;;;;;-146.27;100.00;64033.13;5086778;28;20045;-37
2022/07/03 07:05:15;;;;;;;;;;;;;;;-146.27;100.00;64033.13;5089533;28;19927;-37
2022/07/03 07:07:40;;;;;;;;;;;;;;;-146.27;100.00;64033.13;5089766;28;19931;-37
2022/07/03 07:10:05;;;;;;;;;;;;;;;-146.27;100.00;64033.13;5089860;28;19938;-51
2022/07/03 07:12:31;;;;;;;;;;;;;;;-146.27;100.00;64033.13;5089668;28;20395;-49
2022/07/03 07:14:56;;;;;;;;;;;;;;;-146.27;100.00;64033.13;5089482;28;20007;-50
2022/07/03 07:17:21;;;;;;;;;;;;;;;-146.27;100.00;64033.13;5089919;28;19920;-38
2022/07/03 07:19:47;;;;;;;;;;;;;;;-146.27;100.00;64033.13;5090137;28;20372;-37
2022/07/03 07:22:12;;;;;;;;;;;;;;;-146.27;100.00;64033.13;5089732;28;20474;-37
2022/07/03 07:24:37;;;;;;;;;;;;;;;-146.27;100.00;64033.13;5089515;28;19932;-38
2022/07/03 07:27:03;;;;;;;;;;;;;;;-146.27;100.00;64033.13;5089888;28;19934;-38
2022/07/03 07:29:28;;;;;;;;;;;;;;;-146.27;100.00;64033.13;5090070;28;19970;-37
2022/07/03 07:31:53;;;;;;;;;;;;;;;-146.27;100.00;64033.13;5093941;28;19912;-37
2022/07/03 07:34:19;;;;;;;;;;;;;;;-146.27;100.00;64033.13;5093798;28;20018;-37
2022/07/03 07:36:44;;;;;;;;;;;;;;;-146.27;100.00;64033.13;5093362;28;20037;-37
2022/07/03 07:39:09;;;;;;;;;;;;;;;-146.27;100.00;64033.13;5094122;28;19919;-37
2022/07/03 07:41:35;;;;;;;;;;;;;;;-146.27;100.00;64033.13;5093911;28;20398;-37
2022/07/03 07:44:01;;;;;;;;;;;;;;;-146.27;100.00;64033.13;5093605;28;19923;-37
2022/07/03 07:46:26;;;;;;;;;;;;;;;-146.27;100.00;64033.13;5093965;28;19922;-38
2022/07/03 07:48:51;;;;;;;;;;;;;;;-146.27;100.00;64033.13;5094126;28;20022;-37
2022/07/03 07:51:16;;;;;;;;;;;;;;;-146.27;100.00;64033.13;5093699;28;19995;-37
2022/07/03 07:53:42;;;;;;;;;;;;;;;-146.27;100.00;64033.13;5093810;28;19912;-37
2022/07/03 07:56:07;;;;;;;;;;;;;;;-146.27;100.00;64033.13;5093635;28;19923;-37
2022/07/03 07:58:32;;;;;;;;;;;;;;;-146.27;100.00;64033.13;5093883;28;19919;-37
2022/07/03 08:06:25;;;;;;;;;;;;;;;-146.27;100.00;64033.13;5093426;28;19918;-37
2022/07/03 08:08:50;;;;;;;;;;;;;;;-146.27;100.00;64033.13;5093420;28;19912;-37
2022/07/03 08:11:16;;;;;;;;;;;;;;;-146.27;100.00;64033.13;5093821;28;19916;-37
2022/07/03 08:13:41;;;;;;;;;;;;;;;-146.27;100.00;64033.13;5092767;28;20386;-37
2022/07/03 08:16:07;;;;;;;;;;;;;;;-146.27;100.00;64033.13;5092647;28;20424;-37
2022/07/03 08:18:32;;;;;;;;;;;;;;;-146.27;100.00;64033.13;5092285;28;19967;-37
2022/07/03 08:20:57;;;;;;;;;;;;;;;-146.27;100.00;64033.13;5092510;28;19919;-37
2022/07/03 08:23:23;;;;;;;;;;;;;;;-146.27;100.00;64033.13;5092803;28;19920;-38
2022/07/03 08:25:48;;;;;;;;;;;;;;;-146.27;100.00;64033.13;5092757;28;19912;-37
2022/07/03 08:28:13;;;;;;;;;;;;;;;-146.27;100.00;64033.13;5093234;28;19935;-37
2022/07/03 08:30:38;;;;;;;;;;;;;;;-146.27;100.00;64033.13;5093088;28;20369;-38
2022/07/03 08:33:04;;;;;;;;;;;;;;;-146.27;100.00;64033.13;5092812;28;20012;-37
2022/07/03 08:35:29;;;;;;;;;;;;;;;-146.27;100.00;64033.13;5092570;28;19923;-38
2022/07/03 08:37:55;;;;;;;;;;;;;;;-146.27;100.00;64033.13;5092541;28;19920;-37
2022/07/03 08:40:20;;;;;;;;;;;;;;;-146.27;100.00;64033.13;5092823;28;19919;-37
2022/07/03 08:42:47;;;;;;;;;;;;;;;-146.27;100.00;64033.13;5091677;28;20283;-37
2022/07/03 08:45:16;;;;;;;;;;;;;;;-146.27;100.00;64033.13;5092454;28;19978;-37
2022/07/03 08:47:43;;;;;;;;;;;;;;;-146.27;100.00;64033.13;5092316;28;20439;-37
2022/07/03 08:50:09;;;;;;;;;;;;;;;-146.27;100.00;64033.13;5092374;28;19912;-37
2022/07/03 08:52:35;;;;;;;;;;;;;;;-146.27;100.00;64033.13;5092608;28;19990;-37
2022/07/03 08:55:01;;;;;;;;;;;;;;;-146.27;100.00;64033.13;5092760;28;20362;-38
2022/07/03 08:57:27;;;;;;;;;;;;;;;-146.27;100.00;64033.13;5092730;28;19977;-37
2022/07/03 08:59:53;;;;;;;;;;;;;;;-146.27;100.00;64033.13;5092432;28;19912;-37
2022/07/03 09:02:18;;;;;;;;;;;;;;;-146.27;100.00;64033.13;5092555;28;19923;-37
2022/07/03 09:04:44;;;;;;;;;;;;;;;-146.27;100.00;64033.13;5092141;28;19912;-37
2022/07/03 09:07:10;;;;;;;;;;;;;;;-146.27;100.00;64033.13;5092500;28;19916;-37
2022/07/03 09:09:37;;;;;;;;;;;;;;;-146.27;100.00;64033.13;5092389;28;20339;-37
2022/07/03 09:12:02;;;;;;;;;;;;;;;-146.27;100.00;64033.13;5092195;28;19919;-38
2022/07/03 09:14:28;;;;;;;;;;;;;;;-146.27;100.00;64033.13;5090616;28;19912;-37
2022/07/03 09:16:53;;;;;;;;;;;;;;;-146.27;100.00;64033.13;5092280;28;20077;-37
2022/07/03 09:19:37;;;;;;;;;;;;;;;-146.27;100.00;64033.13;5092573;28;19912;-36
2022/07/03 09:22:03;;;;;;;;;;;;;;;-146.27;100.00;64033.13;5091937;28;19919;-37
2022/07/03 09:24:32;;;;;;;;;;;;;;;-146.27;100.00;64033.13;5092034;28;19912;-37
2022/07/03 09:26:57;;;;;;;;;;;;;;;-146.27;100.00;64033.13;5092241;28;19939;-37
2022/07/03 09:29:23;;;;;;;;;;;;;;;-146.27;100.00;64033.13;5090658;28;20279;-37
2022/07/03 09:31:55;;;;;;;;;;;;;;;-146.27;100.00;64033.13;5091869;28;19943;-37
2022/07/03 09:34:21;;;;;;;;;;;;;;;-146.27;100.00;64033.13;5091763;28;19919;-37
2022/07/03 09:36:48;;;;;;;;;;;;;;;-146.27;100.00;64033.13;5091814;28;20261;-37
2022/07/03 09:39:14;;;;;;;;;;;;;;;-146.27;100.00;64033.13;5091892;28;19920;-37
2022/07/03 09:41:58;;;;;;;;;;;;;;;-146.27;100.00;64033.13;5091517;28;19969;-37
2022/07/03 09:44:30;;;;;;;;;;;;;;;-146.27;100.00;64033.13;5091329;28;19912;-37
2022/07/03 09:47:16;;;;;;;;;;;;;;;-146.27;100.00;64033.13;5091679;28;19912;-37
2022/07/03 09:49:46;;;;;;;;;;;;;;;-146.27;100.00;64033.13;5091190;28;19916;-37
2022/07/03 09:52:26;;;;;;;;;;;;;;;-146.27;100.00;64033.13;5091504;28;20356;-38
2022/07/03 09:54:52;;;;;;;;;;;;;;;-146.27;100.00;64033.13;5090847;28;20233;-37
2022/07/03 09:57:17;;;;;;;;;;;;;;;-146.27;100.00;64033.13;5091505;28;19946;-38
2022/07/03 09:59:43;;;;;;;;;;;;;;;-146.27;100.00;64033.13;5091727;28;20283;-38
2022/07/03 10:02:08;;;;;;;;;;;;;;;-146.27;100.00;64033.13;5091502;28;19958;-38
2022/07/03 10:04:33;;;;;;;;;;;;;;;-146.27;100.00;64033.13;5090363;28;20303;-38
2022/07/03 10:06:59;;;;;;;;;;;;;;;-146.27;100.00;64033.13;5090839;28;19912;-38
2022/07/03 10:09:29;;;;;;;;;;;;;;;-146.27;100.00;64033.13;5091248;28;19944;-37
2022/07/03 10:11:55;;;;;;;;;;;;;;;-146.27;100.00;64033.13;5091158;28;20028;-37
2022/07/03 10:14:22;;;;;;;;;;;;;;;-146.27;100.00;64033.13;5091028;28;20001;-37
2022/07/03 10:16:47;;;;;;;;;;;;;;;-146.27;100.00;64033.13;5091230;28;19920;-37
2022/07/03 10:19:23;;;;;;;;;;;;;;;-146.27;100.00;64033.13;5090560;28;19923;-37
2022/07/03 10:21:52;;;;;;;;;;;;;;;-146.27;100.00;64033.13;5090850;28;19916;-36
2022/07/03 10:24:17;;;;;;;;;;;;;;;-146.27;100.00;64033.13;5090793;28;19939;-36
2022/07/03 10:26:43;;;;;;;;;;;;;;;-146.27;100.00;64033.13;5090379;28;20543;-37
2022/07/03 10:29:10;;;;;;;;;;;;;;;-146.27;100.00;64033.13;5090026;28;19912;-38
2022/07/03 10:31:36;;;;;;;;;;;;;;;-146.27;100.00;64033.13;5088522;28;19923;-37
2022/07/03 10:34:02;;;;;;;;;;;;;;;-146.27;100.00;64033.13;5086062;28;20052;-37
2022/07/03 10:36:28;;;;;;;;;;;;;;;-146.27;100.00;64033.13;5093126;28;20596;-36
2022/07/03 10:38:57;;;;;;;;;;;;;;;-146.27;100.00;64033.13;5111300;28;19938;-37
2022/07/03 10:47:03;;;;;;;;;;;;;;;-146.27;100.00;64033.13;5111300;28;20140;-38
2022/07/03 10:49:28;;;;;;;;;;;;;;;-146.27;100.00;64033.13;5111375;28;20471;-36
2022/07/03 10:51:54;;;;;;;;;;;;;;;-146.27;100.00;64033.13;5111437;28;20374;-37
2022/07/03 10:54:21;;;;;;;;;;;;;;;-146.27;100.00;64033.13;5110715;28;19912;-37
2022/07/03 10:57:01;;;;;;;;;;;;;;;-146.27;100.00;64033.13;5090679;28;19916;-37
2022/07/03 10:59:36;;;;;;;;;;;;;;;-146.27;100.00;64033.13;5089539;28;19916;-38
2022/07/03 11:02:16;;;;;;;;;;;;;;;-146.27;100.00;64033.13;5091273;28;20303;-37
2022/07/03 11:04:59;;;;;;;;;;;;;;;-146.27;100.00;64033.13;5092985;28;19923;-37
2022/07/03 11:07:25;;;;;;;;;;;;;;;-146.27;100.00;64033.13;5097392;28;19912;-38
2022/07/03 11:10:05;;;;;;;;;;;;;;;-146.27;100.00;64033.13;5097307;28;19912;-38
2022/07/03 11:13:03;;;;;;;;;;;;;;;-146.27;100.00;64033.13;5097728;28;19912;-38
2022/07/03 11:15:35;;;;;;;;;;;;;;;-146.27;100.00;64033.13;5085397;28;20415;-38
2022/07/03 11:18:12;;;;;;;;;;;;;;;-146.27;100.00;64033.13;5098084;28;19916;-38
2022/07/03 11:20:55;;;;;;;;;;;;;;;-146.27;100.00;64033.13;5093891;28;19916;-38
2022/07/03 11:23:27;;;;;;;;;;;;;;;-146.27;100.00;64033.13;5077811;28;20426;-38
2022/07/03 11:25:52;;;;;;;;;;;;;;;-146.27;100.00;64033.13;5076818;28;19912;-39
2022/07/03 11:28:32;;;;;;;;;;;;;;;-146.27;100.00;64033.13;5077630;28;19912;-37
2022/07/03 11:33:49;;;;;;;;;;;;;;;-146.27;100.00;64033.13;5077540;28;20015;-37
2022/07/03 11:36:17;;;;;;;;;;;;;;;-146.27;100.00;64033.13;5078671;28;19924;-37
2022/07/03 11:38:46;;;;;;;;;;;;;;;-146.27;100.00;64033.13;5117647;28;19919;-37
2022/07/03 11:41:12;;;;;;;;;;;;;;;-146.27;100.00;64033.13;5117653;28;19912;-37
2022/07/03 11:43:38;;;;;;;;;;;;;;;-146.27;100.00;64033.13;5117815;28;20383;-36
2022/07/03 11:46:03;;;;;;;;;;;;;;;-146.27;100.00;64033.13;5097041;28;19912;-37
2022/07/03 11:48:29;;;;;;;;;;;;;;;-146.27;100.00;64033.13;5097481;28;19912;-36
2022/07/03 11:51:02;;;;;;;;;;;;;;;-146.27;100.00;64033.13;5097060;28;19912;-36
2022/07/03 11:53:29;;;;;;;;;;;;;;;-146.27;100.00;64033.13;5097282;28;19938;-38
2022/07/03 11:55:55;;;;;;;;;;;;;;;-146.27;100.00;64033.13;5097632;28;19976;-37
2022/07/03 11:58:20;;;;;;;;;;;;;;;-146.27;100.00;64033.13;5097057;28;19919;-37
2022/07/03 12:00:46;;;;;;;;;;;;;;;-146.27;100.00;64033.13;5097558;28;20383;-37
2022/07/03 12:03:15;;;;;;;;;;;;;;;-146.27;100.00;64033.13;5097161;28;19927;-38
2022/07/03 12:05:50;;;;;;;;;;;;;;;-146.27;100.00;64033.13;5096987;28;19912;-38
2022/07/03 12:08:21;;;;;;;;;;;;;;;-146.27;100.00;64033.13;5097245;28;20368;-37
2022/07/03 12:10:46;;;;;;;;;;;;;;;-146.27;100.00;64033.13;5097833;28;19920;-37
2022/07/03 12:13:18;;;;;;;;;;;;;;;-146.27;100.00;64033.13;5097210;28;19912;-36
2022/07/03 12:15:43;;;;;;;;;;;;;;;-146.27;100.00;64033.13;5096807;28;19919;-37
2022/07/03 12:18:08;;;;;;;;;;;;;;;-146.27;100.00;64033.13;5094177;28;19912;-37
2022/07/03 12:20:34;;;;;;;;;;;;;;;-146.27;100.00;64033.13;5094200;28;19923;-37
2022/07/03 12:22:59;;;;;;;;;;;;;;;-146.27;100.00;64033.13;5093855;28;20394;-37
2022/07/03 12:25:29;;;;;;;;;;;;;;;-146.27;100.00;64033.13;5094130;28;19918;-37
2022/07/03 12:27:54;;;;;;;;;;;;;;;-146.27;100.00;64033.13;5094049;28;19919;-37
2022/07/03 12:30:22;;;;;;;;;;;;;;;-146.27;100.00;64033.13;5094294;28;19912;-37
2022/07/03 12:32:48;;;;;;;;;;;;;;;-146.27;100.00;64033.13;5093554;28;20083;-37